Time;durP1;ratioP1;P1;durP2;ratioP2;P2;SDS_P1;SDS_P2;PMS_P1;PMS_P2;Temp;Humidity;BMP_temperature;BMP_pressure;BME280_temperature;BME280_humidity;BME280_pressure;Samples;Min_cycle;Max_cycle;Signal;HPM_P1;HPM_P2
2020/12/22 00:00:47;;;;;;;3.53;2.92;;;9.70;62.30;;;;;;5013471;28;20053;-72
2020/12/22 00:03:14;;;;;;;3.50;2.58;;;9.70;62.20;;;;;;5008929;28;20489;-71
2020/12/22 00:05:41;;;;;;;4.53;3.22;;;9.70;62.30;;;;;;5008597;28;20431;-71
2020/12/22 00:08:11;;;;;;;4.78;3.20;;;9.70;63.70;;;;;;5010702;28;20046;-71
2020/12/22 00:10:38;;;;;;;5.47;3.90;;;9.60;67.30;;;;;;5013723;28;20141;-71
2020/12/22 00:13:06;;;;;;;6.00;4.05;;;9.50;69.40;;;;;;5011171;28;20052;-71
2020/12/22 00:15:33;;;;;;;5.47;4.22;;;9.50;69.00;;;;;;5009526;28;20049;-71
2020/12/22 00:18:07;;;;;;;4.95;3.55;;;9.50;69.00;;;;;;5010859;28;20080;-70
2020/12/22 00:20:35;;;;;;;6.00;3.60;;;9.50;68.70;;;;;;5012058;28;20124;-71
2020/12/22 00:23:02;;;;;;;7.45;3.58;;;9.50;68.20;;;;;;5012562;28;20084;-71
2020/12/22 00:25:30;;;;;;;5.90;4.07;;;9.50;69.10;;;;;;5008837;28;20316;-71
2020/12/22 00:27:56;;;;;;;5.18;3.78;;;9.50;68.70;;;;;;5007634;28;20053;-72
2020/12/22 00:30:24;;;;;;;6.50;4.05;;;9.50;69.20;;;;;;5007117;28;20087;-72
2020/12/22 00:32:51;;;;;;;4.32;3.17;;;9.50;69.60;;;;;;5008759;28;20046;-72
2020/12/22 00:35:18;;;;;;;4.13;3.00;;;9.50;70.30;;;;;;5009748;28;20053;-71
2020/12/22 00:37:45;;;;;;;4.35;2.88;;;9.50;69.20;;;;;;5007133;28;20480;-71
2020/12/22 00:40:12;;;;;;;4.28;3.05;;;9.60;68.70;;;;;;5011948;28;20076;-72
2020/12/22 00:42:38;;;;;;;3.38;2.60;;;9.60;68.90;;;;;;5008512;28;20064;-73
2020/12/22 00:45:05;;;;;;;4.25;2.60;;;9.60;69.70;;;;;;5006321;28;20042;-72
2020/12/22 00:47:33;;;;;;;2.67;2.13;;;9.60;69.30;;;;;;5005233;28;20054;-72
2020/12/22 00:50:00;;;;;;;1.92;1.73;;;9.70;68.90;;;;;;5005535;28;20082;-71
2020/12/22 00:52:27;;;;;;;3.42;1.77;;;9.70;68.80;;;;;;5009245;28;20389;-71
2020/12/22 00:54:54;;;;;;;1.77;1.40;;;9.80;68.10;;;;;;5004577;28;20055;-71
2020/12/22 00:57:21;;;;;;;1.48;1.38;;;10.00;65.20;;;;;;5008767;28;20492;-72
2020/12/22 00:59:47;;;;;;;1.67;1.35;;;10.00;65.60;;;;;;5006318;28;20749;-71
2020/12/22 01:02:15;;;;;;;1.50;1.25;;;10.00;65.10;;;;;;5009540;28;20060;-72
2020/12/22 01:04:43;;;;;;;2.70;1.08;;;10.10;64.60;;;;;;5007805;28;20054;-72
2020/12/22 01:07:10;;;;;;;2.13;1.30;;;10.20;64.30;;;;;;5008050;28;20474;-73
2020/12/22 01:09:37;;;;;;;2.10;1.15;;;10.20;62.30;;;;;;5007121;28;20054;-72
2020/12/22 01:12:06;;;;;;;2.05;1.15;;;10.20;63.80;;;;;;5011401;28;20048;-71
2020/12/22 01:14:32;;;;;;;1.40;0.93;;;10.20;63.60;;;;;;5008586;28;20132;-69
2020/12/22 01:16:59;;;;;;;1.30;0.80;;;10.40;61.70;;;;;;5010979;28;20663;-70
2020/12/22 01:19:26;;;;;;;1.45;1.00;;;10.50;61.00;;;;;;5013151;28;20048;-70
2020/12/22 01:21:54;;;;;;;1.15;0.88;;;10.40;61.10;;;;;;5015028;28;20050;-70
2020/12/22 01:24:21;;;;;;;0.98;0.75;;;10.40;61.90;;;;;;5007980;28;20052;-71
2020/12/22 01:26:49;;;;;;;1.23;0.90;;;10.50;61.70;;;;;;5012475;28;20416;-71
2020/12/22 01:29:16;;;;;;;1.00;0.70;;;10.40;62.00;;;;;;5007730;28;20498;-71
2020/12/22 01:31:43;;;;;;;1.27;0.80;;;10.50;62.30;;;;;;5011321;28;20057;-72
2020/12/22 01:34:10;;;;;;;1.00;0.70;;;10.50;62.70;;;;;;5006353;28;20136;-72
2020/12/22 01:36:37;;;;;;;1.85;0.85;;;10.50;62.00;;;;;;5007455;28;20136;-72
2020/12/22 01:39:04;;;;;;;1.00;0.60;;;10.50;63.20;;;;;;5011256;28;20048;-71
2020/12/22 01:41:32;;;;;;;1.33;0.60;;;10.60;62.10;;;;;;5007224;28;20072;-72
2020/12/22 01:44:04;;;;;;;2.67;0.50;;;10.60;62.10;;;;;;5004137;28;20895;-70
2020/12/22 01:46:33;;;;;;;0.30;0.30;;;10.60;61.00;;;;;;5007783;28;20075;-71
2020/12/22 01:49:01;;;;;;;0.68;0.40;;;10.60;62.10;;;;;;5006756;28;20052;-71
2020/12/22 01:51:29;;;;;;;0.75;0.40;;;10.60;62.60;;;;;;5006134;28;20058;-72
2020/12/22 01:53:56;;;;;;;0.95;0.50;;;10.70;62.10;;;;;;5004435;28;20107;-71
2020/12/22 01:56:24;;;;;;;1.58;0.40;;;10.70;60.80;;;;;;5005521;28;20050;-71
2020/12/22 01:58:51;;;;;;;0.98;0.50;;;10.80;59.80;;;;;;5007439;28;20073;-71
2020/12/22 02:01:18;;;;;;;0.45;0.32;;;10.80;59.50;;;;;;5006275;28;20056;-70
2020/12/22 02:03:45;;;;;;;0.95;0.50;;;10.70;59.50;;;;;;5004735;28;20054;-70
2020/12/22 02:06:12;;;;;;;0.60;0.40;;;10.80;58.20;;;;;;5006027;28;20062;-70
2020/12/22 02:08:39;;;;;;;0.30;0.30;;;10.80;59.10;;;;;;5009314;28;20827;-70
2020/12/22 02:11:06;;;;;;;0.73;0.47;;;10.80;59.60;;;;;;5008414;28;20060;-71
2020/12/22 02:13:34;;;;;;;0.40;0.20;;;10.70;58.70;;;;;;5008828;28;20071;-71
2020/12/22 02:16:01;;;;;;;0.75;0.30;;;10.70;58.50;;;;;;5005720;28;20052;-70
2020/12/22 02:18:28;;;;;;;0.60;0.30;;;10.70;59.70;;;;;;5009138;28;20205;-71
2020/12/22 02:21:01;;;;;;;2.72;0.30;;;10.70;59.10;;;;;;5009631;28;20519;-71
2020/12/22 02:23:28;;;;;;;0.50;0.30;;;10.60;59.70;;;;;;5011243;28;20497;-72
2020/12/22 02:25:55;;;;;;;1.00;0.43;;;10.60;60.40;;;;;;5006905;28;20046;-70
2020/12/22 02:28:22;;;;;;;0.70;0.38;;;10.50;61.50;;;;;;5004890;28;20046;-70
2020/12/22 02:30:49;;;;;;;0.52;0.30;;;10.60;60.00;;;;;;5015620;28;20046;-71
2020/12/22 02:33:16;;;;;;;2.45;0.30;;;10.60;59.20;;;;;;5014805;28;20112;-77
2020/12/22 02:35:43;;;;;;;0.50;0.30;;;10.50;59.00;;;;;;5013494;28;20135;-70
2020/12/22 02:38:11;;;;;;;0.90;0.30;;;10.50;59.10;;;;;;5020717;28;20586;-69
2020/12/22 02:40:38;;;;;;;0.95;0.60;;;10.40;61.90;;;;;;5008833;28;20411;-69
2020/12/22 02:43:10;;;;;;;1.60;1.15;;;10.60;59.20;;;;;;5015441;28;20046;-73
2020/12/22 02:45:38;;;;;;;0.65;0.20;;;10.60;58.60;;;;;;5015376;28;20133;-71
2020/12/22 02:48:05;;;;;;;0.20;0.13;;;10.70;58.00;;;;;;5018557;28;20496;-70
2020/12/22 02:50:32;;;;;;;0.63;0.30;;;10.80;57.30;;;;;;5015606;28;20500;-74
2020/12/22 02:52:59;;;;;;;3.50;0.57;;;10.80;56.90;;;;;;5019787;28;20049;-73
2020/12/22 02:55:27;;;;;;;0.40;0.20;;;10.80;55.80;;;;;;5010042;28;20053;-69
2020/12/22 02:57:54;;;;;;;1.48;0.52;;;10.80;56.00;;;;;;5010836;28;20045;-70
2020/12/22 03:00:22;;;;;;;0.77;0.20;;;11.00;54.40;;;;;;5008892;28;20050;-70
2020/12/22 03:02:48;;;;;;;2.38;0.30;;;11.00;54.80;;;;;;5015458;28;20045;-69
2020/12/22 03:05:16;;;;;;;0.50;0.20;;;11.00;55.00;;;;;;5011105;28;20085;-70
2020/12/22 03:07:44;;;;;;;0.65;0.20;;;11.00;54.40;;;;;;5011692;28;20050;-69
2020/12/22 03:10:12;;;;;;;0.38;0.20;;;11.00;54.40;;;;;;5007981;28;20053;-71
2020/12/22 03:12:40;;;;;;;1.08;0.28;;;11.00;54.70;;;;;;5018344;28;20041;-76
2020/12/22 03:15:07;;;;;;;1.48;0.28;;;11.10;53.80;;;;;;5020681;28;20054;-70
2020/12/22 03:17:35;;;;;;;0.20;0.20;;;11.00;54.40;;;;;;5018245;28;20132;-70
2020/12/22 03:20:02;;;;;;;0.25;0.20;;;11.10;54.50;;;;;;5009753;28;20047;-70
2020/12/22 03:22:30;;;;;;;1.75;0.30;;;11.10;54.10;;;;;;5013962;28;20096;-70
2020/12/22 03:24:56;;;;;;;0.15;0.13;;;11.10;54.50;;;;;;5009621;28;20049;-70
2020/12/22 03:27:23;;;;;;;0.30;0.15;;;11.10;53.70;;;;;;5016221;28;20525;-78
2020/12/22 03:29:51;;;;;;;0.60;0.20;;;11.10;53.80;;;;;;5016295;28;20057;-72
2020/12/22 03:32:18;;;;;;;0.93;0.40;;;11.10;54.00;;;;;;5012905;28;20057;-72
2020/12/22 03:34:45;;;;;;;0.22;0.20;;;11.10;54.50;;;;;;5012409;28;20132;-72
2020/12/22 03:37:19;;;;;;;0.20;0.10;;;11.00;55.30;;;;;;5012696;28;20052;-70
2020/12/22 03:39:48;;;;;;;0.43;0.20;;;11.10;54.40;;;;;;5007872;28;20136;-71
2020/12/22 03:42:16;;;;;;;0.70;0.20;;;11.10;54.70;;;;;;5012386;28;20137;-71
2020/12/22 03:44:43;;;;;;;1.35;0.20;;;11.10;54.90;;;;;;5005980;28;20599;-71
2020/12/22 03:47:11;;;;;;;0.57;0.30;;;11.10;55.50;;;;;;5012073;28;20054;-71
2020/12/22 03:49:37;;;;;;;0.30;0.20;;;10.90;56.20;;;;;;5009561;28;20053;-71
2020/12/22 03:52:05;;;;;;;0.20;0.10;;;11.00;56.70;;;;;;5012123;28;20072;-70
2020/12/22 03:54:32;;;;;;;0.28;0.13;;;11.00;56.20;;;;;;5007140;28;20041;-71
2020/12/22 03:56:59;;;;;;;0.20;0.10;;;11.00;56.20;;;;;;5012702;28;20050;-71
2020/12/22 03:59:26;;;;;;;0.20;0.10;;;11.10;56.20;;;;;;5009806;28;20089;-71
2020/12/22 04:01:53;;;;;;;0.40;0.20;;;11.00;56.40;;;;;;5012504;28;20057;-71
2020/12/22 04:04:22;;;;;;;0.30;0.20;;;11.00;57.10;;;;;;5006461;28;20570;-72
2020/12/22 04:06:49;;;;;;;0.32;0.20;;;11.00;56.90;;;;;;5011743;28;20048;-72
2020/12/22 04:09:17;;;;;;;0.28;0.20;;;11.00;56.30;;;;;;5009233;28;20104;-72
2020/12/22 04:11:44;;;;;;;0.45;0.30;;;11.00;57.40;;;;;;5011869;28;20129;-72
2020/12/22 04:14:12;;;;;;;4.47;0.22;;;11.00;56.50;;;;;;5008599;28;20073;-70
2020/12/22 04:16:39;;;;;;;0.20;0.20;;;11.10;56.60;;;;;;5009963;28;20068;-71
2020/12/22 04:19:07;;;;;;;0.40;0.20;;;11.10;55.30;;;;;;5010155;28;20096;-71
2020/12/22 04:21:36;;;;;;;0.32;0.20;;;11.00;56.30;;;;;;5012088;28;20073;-72
2020/12/22 04:24:04;;;;;;;0.52;0.20;;;11.00;55.90;;;;;;5004357;28;20061;-72
2020/12/22 04:26:31;;;;;;;0.25;0.10;;;11.00;55.80;;;;;;5009889;28;20685;-70
2020/12/22 04:28:58;;;;;;;0.88;0.20;;;11.10;55.50;;;;;;5008973;28;20042;-71
2020/12/22 04:31:25;;;;;;;0.57;0.25;;;11.10;55.10;;;;;;5010345;28;20129;-71
2020/12/22 04:33:53;;;;;;;3.80;0.30;;;11.00;56.10;;;;;;5009598;28;20732;-71
2020/12/22 04:36:21;;;;;;;0.13;0.13;;;11.10;55.50;;;;;;5009360;28;20049;-72
2020/12/22 04:38:49;;;;;;;3.22;0.30;;;11.20;54.60;;;;;;5012224;28;20118;-71
2020/12/22 04:41:18;;;;;;;1.00;0.68;;;11.10;54.60;;;;;;5009763;28;20125;-71
2020/12/22 04:43:46;;;;;;;0.22;0.17;;;11.20;54.40;;;;;;5011067;28;20050;-71
2020/12/22 04:46:18;;;;;;;1.55;0.35;;;11.30;54.30;;;;;;5011107;28;20053;-70
2020/12/22 04:48:52;;;;;;;0.38;0.25;;;11.20;54.50;;;;;;5013134;28;20131;-70
2020/12/22 04:51:20;;;;;;;3.25;0.45;;;11.20;54.50;;;;;;5009429;28;20053;-71
2020/12/22 04:54:04;;;;;;;0.52;0.17;;;11.20;54.50;;;;;;5007289;28;20149;-72
2020/12/22 04:56:31;;;;;;;0.20;0.10;;;11.20;54.50;;;;;;5008688;28;20408;-71
2020/12/22 04:58:58;;;;;;;0.57;0.20;;;11.20;54.50;;;;;;5013868;28;20136;-70
2020/12/22 05:01:26;;;;;;;1.50;0.20;;;11.30;54.60;;;;;;5008067;28;20053;-72
2020/12/22 05:03:52;;;;;;;0.20;0.20;;;11.30;54.50;;;;;;5007411;28;20665;-72
2020/12/22 05:06:19;;;;;;;0.50;0.13;;;11.20;54.50;;;;;;5009305;28;20061;-71
2020/12/22 05:08:46;;;;;;;0.25;0.20;;;11.20;54.80;;;;;;5011091;28;20046;-72
2020/12/22 05:11:16;;;;;;;0.47;0.20;;;11.20;55.00;;;;;;5008474;28;20050;-72
2020/12/22 05:13:43;;;;;;;0.30;0.10;;;11.20;55.50;;;;;;5008814;28;20054;-71
2020/12/22 05:16:10;;;;;;;0.65;0.20;;;11.20;55.60;;;;;;5007457;28;20472;-72
2020/12/22 05:18:37;;;;;;;1.17;0.32;;;11.20;55.60;;;;;;5004109;28;20711;-72
2020/12/22 05:21:19;;;;;;;0.63;0.20;;;11.20;55.60;;;;;;5010199;28;20054;-73
2020/12/22 05:23:48;;;;;;;0.43;0.30;;;11.30;55.70;;;;;;5007922;28;20091;-72
2020/12/22 05:26:17;;;;;;;0.63;0.25;;;11.30;55.30;;;;;;5007001;28;20129;-73
2020/12/22 05:28:44;;;;;;;2.25;0.25;;;11.20;56.20;;;;;;5008275;28;20056;-72
2020/12/22 05:31:15;;;;;;;0.50;0.20;;;11.30;56.40;;;;;;5010901;28;20046;-72
2020/12/22 05:33:43;;;;;;;2.10;0.20;;;11.30;56.30;;;;;;5010128;28;20061;-73
2020/12/22 05:36:10;;;;;;;0.30;0.13;;;11.30;56.10;;;;;;5011184;28;20420;-71
2020/12/22 05:38:38;;;;;;;0.15;0.10;;;11.30;56.50;;;;;;5009251;28;20077;-72
2020/12/22 05:41:06;;;;;;;1.02;0.25;;;11.30;55.90;;;;;;5011605;28;20049;-72
2020/12/22 05:43:42;;;;;;;1.13;0.22;;;11.30;55.60;;;;;;5010666;28;20533;-73
2020/12/22 05:46:10;;;;;;;0.30;0.10;;;11.40;55.70;;;;;;5008204;28;20041;-74
2020/12/22 05:48:37;;;;;;;0.63;0.55;;;11.50;55.00;;;;;;5009400;28;20057;-73
2020/12/22 05:51:07;;;;;;;0.52;0.15;;;11.50;54.80;;;;;;5007078;28;20108;-72
2020/12/22 05:53:41;;;;;;;2.75;0.30;;;11.50;54.80;;;;;;5012077;28;20057;-72
2020/12/22 05:56:15;;;;;;;0.55;0.28;;;11.40;55.30;;;;;;5010836;28;20045;-72
2020/12/22 05:58:44;;;;;;;0.30;0.28;;;11.50;54.50;;;;;;5010789;28;20053;-72
2020/12/22 06:01:13;;;;;;;1.13;0.40;;;11.60;54.70;;;;;;5008835;28;20136;-71
2020/12/22 06:03:42;;;;;;;0.55;0.40;;;11.60;54.50;;;;;;5006847;28;20073;-72
2020/12/22 06:06:09;;;;;;;1.67;0.30;;;11.60;54.40;;;;;;5008824;28;20069;-73
2020/12/22 06:08:38;;;;;;;0.95;0.30;;;11.60;54.60;;;;;;5009925;28;20128;-72
2020/12/22 06:11:11;;;;;;;3.15;0.85;;;11.60;54.50;;;;;;5010704;28;20070;-73
2020/12/22 06:13:38;;;;;;;0.28;0.10;;;11.70;54.00;;;;;;5007755;28;20045;-71
2020/12/22 06:16:16;;;;;;;0.63;0.20;;;11.70;53.90;;;;;;5009688;28;20401;-70
2020/12/22 06:18:45;;;;;;;1.27;0.38;;;11.70;53.90;;;;;;5012026;28;20057;-71
2020/12/22 06:21:12;;;;;;;1.23;0.45;;;11.70;53.60;;;;;;5007562;28;21462;-73
2020/12/22 06:23:39;;;;;;;0.30;0.20;;;11.70;54.10;;;;;;5020369;28;20053;-71
2020/12/22 06:26:06;;;;;;;2.15;0.40;;;11.70;54.60;;;;;;5015653;28;20427;-73
2020/12/22 06:28:33;;;;;;;0.98;0.30;;;11.80;53.60;;;;;;5013013;28;20057;-69
2020/12/22 06:31:14;;;;;;;0.90;0.28;;;11.80;53.90;;;;;;5009584;28;20144;-71
2020/12/22 06:33:42;;;;;;;1.08;0.20;;;11.80;53.30;;;;;;5013427;28;20058;-70
2020/12/22 06:36:13;;;;;;;0.30;0.30;;;11.80;53.40;;;;;;5009109;28;20146;-74
2020/12/22 06:38:51;;;;;;;0.75;0.30;;;11.80;54.00;;;;;;5009631;28;20050;-73
2020/12/22 06:41:46;;;;;;;1.33;0.40;;;11.80;53.70;;;;;;5006705;28;20132;-70
2020/12/22 06:44:23;;;;;;;3.15;0.47;;;11.80;54.20;;;;;;5006046;28;20601;-70
2020/12/22 06:46:52;;;;;;;2.10;0.30;;;11.90;53.90;;;;;;5011244;28;20054;-78
2020/12/22 06:49:35;;;;;;;3.78;0.30;;;11.80;54.50;;;;;;5009507;28;20055;-71
2020/12/22 06:52:33;;;;;;;2.05;0.95;;;11.90;53.60;;;;;;5008963;28;20049;-71
2020/12/22 06:55:01;;;;;;;0.38;0.30;;;11.90;53.80;;;;;;5013489;28;20054;-73
2020/12/22 06:57:52;;;;;;;3.10;0.70;;;11.90;53.50;;;;;;5015643;28;20053;-70
2020/12/22 07:00:37;;;;;;;0.65;0.40;;;11.90;54.20;;;;;;4999886;28;20052;-71
2020/12/22 07:03:12;;;;;;;0.50;0.30;;;11.90;53.60;;;;;;5025269;28;20102;-70
2020/12/22 07:05:41;;;;;;;1.65;0.65;;;11.90;54.20;;;;;;5014208;28;20042;-69
2020/12/22 07:08:09;;;;;;;0.70;0.52;;;11.90;55.00;;;;;;5015977;28;20412;-75
2020/12/22 07:10:41;;;;;;;0.63;0.45;;;11.90;54.90;;;;;;5016872;28;20056;-70
2020/12/22 07:13:11;;;;;;;0.35;0.20;;;11.90;54.40;;;;;;5019689;28;20052;-71
2020/12/22 07:15:43;;;;;;;0.52;0.30;;;12.00;54.40;;;;;;5022095;28;20141;-70
2020/12/22 07:18:12;;;;;;;1.65;0.30;;;12.00;54.10;;;;;;5027543;28;20042;-74
2020/12/22 07:20:41;;;;;;;1.48;0.30;;;12.00;54.30;;;;;;5014845;28;20137;-71
2020/12/22 07:23:09;;;;;;;0.70;0.30;;;12.00;53.90;;;;;;5018649;28;20118;-70
2020/12/22 07:25:37;;;;;;;1.90;0.73;;;12.00;53.60;;;;;;5012336;28;20068;-73
2020/12/22 07:28:06;;;;;;;4.85;0.30;;;12.00;54.10;;;;;;5017413;28;20077;-73
2020/12/22 07:30:33;;;;;;;0.52;0.28;;;12.00;53.50;;;;;;5014633;28;20591;-74
2020/12/22 07:33:02;;;;;;;1.02;0.30;;;12.10;53.20;;;;;;5020303;28;20060;-75
2020/12/22 07:35:31;;;;;;;1.25;0.50;;;12.10;52.90;;;;;;5014939;28;20053;-70
2020/12/22 07:38:04;;;;;;;1.92;0.20;;;12.10;53.40;;;;;;5021728;28;20573;-74
2020/12/22 07:40:36;;;;;;;0.30;0.20;;;12.10;54.20;;;;;;5017443;28;20050;-73
2020/12/22 07:43:04;;;;;;;0.98;0.50;;;12.10;55.80;;;;;;5017459;28;20149;-74
2020/12/22 07:45:31;;;;;;;1.55;0.30;;;12.00;56.60;;;;;;5017651;28;20057;-72
2020/12/22 07:47:58;;;;;;;2.38;0.20;;;12.00;57.30;;;;;;5015977;28;20071;-74
2020/12/22 07:50:25;;;;;;;0.88;0.40;;;12.00;58.60;;;;;;5013807;28;20046;-73
2020/12/22 07:52:58;;;;;;;0.40;0.20;;;11.90;59.10;;;;;;5014608;28;20409;-73
2020/12/22 07:55:26;;;;;;;0.38;0.20;;;11.90;59.70;;;;;;5011647;28;20427;-74
2020/12/22 07:57:54;;;;;;;1.63;0.47;;;11.90;59.40;;;;;;5014091;28;20054;-74
2020/12/22 08:00:21;;;;;;;0.20;0.20;;;11.90;60.80;;;;;;5018923;28;20045;-73
2020/12/22 08:02:48;;;;;;;0.88;0.45;;;11.90;60.20;;;;;;5016646;28;20073;-71
2020/12/22 08:05:15;;;;;;;1.88;0.70;;;12.00;59.20;;;;;;5013391;28;20042;-72
2020/12/22 08:07:52;;;;;;;12.45;0.50;;;12.00;59.20;;;;;;5016713;28;20061;-71
2020/12/22 08:10:19;;;;;;;1.30;0.20;;;12.00;59.20;;;;;;5011722;28;20042;-71
2020/12/22 08:12:52;;;;;;;2.88;1.42;;;12.10;57.10;;;;;;5015275;28;20046;-71
2020/12/22 08:15:20;;;;;;;1.77;0.65;;;12.10;56.20;;;;;;5015160;28;20058;-74
2020/12/22 08:17:50;;;;;;;1.73;0.65;;;12.10;57.20;;;;;;5016818;28;20049;-72
2020/12/22 08:20:18;;;;;;;1.23;0.70;;;12.10;57.80;;;;;;5020087;28;20064;-72
2020/12/22 08:22:45;;;;;;;0.82;0.30;;;12.00;58.10;;;;;;5023171;28;20054;-73
2020/12/22 08:25:13;;;;;;;0.70;0.50;;;12.10;57.80;;;;;;5017320;28;20111;-69
2020/12/22 08:27:40;;;;;;;1.77;0.38;;;12.10;57.80;;;;;;5020750;28;20141;-70
2020/12/22 08:30:17;;;;;;;2.10;0.30;;;12.10;57.00;;;;;;5013708;28;20046;-73
2020/12/22 08:32:45;;;;;;;0.63;0.50;;;12.10;56.10;;;;;;5022682;28;20513;-71
2020/12/22 08:35:12;;;;;;;0.40;0.30;;;12.20;55.60;;;;;;5017532;28;20053;-73
2020/12/22 08:37:39;;;;;;;0.35;0.30;;;12.10;56.00;;;;;;5021407;28;20041;-72
2020/12/22 08:40:25;;;;;;;0.60;0.38;;;12.20;56.00;;;;;;5018658;28;20050;-72
2020/12/22 08:42:52;;;;;;;0.63;0.40;;;12.20;55.40;;;;;;5020612;28;20109;-74
2020/12/22 08:45:20;;;;;;;1.60;0.75;;;12.20;54.50;;;;;;5018247;28;20045;-74
2020/12/22 08:47:51;;;;;;;0.45;0.30;;;12.20;54.90;;;;;;5014711;28;20136;-73
2020/12/22 08:50:18;;;;;;;1.15;0.40;;;12.30;54.60;;;;;;5011559;28;20130;-71
2020/12/22 08:52:45;;;;;;;0.55;0.30;;;12.30;53.80;;;;;;5017070;28;20069;-74
2020/12/22 08:55:12;;;;;;;0.80;0.50;;;12.40;53.40;;;;;;5013259;28;20053;-72
2020/12/22 08:57:39;;;;;;;1.38;0.47;;;12.40;53.40;;;;;;5015342;28;20064;-74
2020/12/22 09:00:13;;;;;;;0.60;0.50;;;12.40;51.90;;;;;;5014710;28;20046;-73
2020/12/22 09:02:41;;;;;;;0.65;0.30;;;12.50;51.70;;;;;;5014996;28;20053;-73
2020/12/22 09:05:11;;;;;;;1.85;0.45;;;12.50;51.70;;;;;;5015562;28;20046;-70
2020/12/22 09:07:38;;;;;;;1.00;0.60;;;12.60;50.20;;;;;;5012519;28;20049;-72
2020/12/22 09:10:08;;;;;;;0.98;0.50;;;12.70;50.60;;;;;;5015459;28;20141;-72
2020/12/22 09:12:35;;;;;;;0.52;0.40;;;12.60;50.00;;;;;;5011921;28;20053;-72
2020/12/22 09:15:05;;;;;;;0.50;0.30;;;12.70;49.70;;;;;;5007887;28;20164;-72
2020/12/22 09:17:33;;;;;;;1.30;0.30;;;12.70;50.50;;;;;;5006220;28;20100;-71
2020/12/22 09:20:01;;;;;;;0.50;0.40;;;12.70;49.70;;;;;;5008381;28;20158;-72
2020/12/22 09:22:30;;;;;;;3.35;1.63;;;12.70;50.00;;;;;;5006039;28;20420;-70
2020/12/22 09:24:59;;;;;;;1.60;0.90;;;12.70;50.80;;;;;;5007014;28;20050;-73
2020/12/22 09:27:30;;;;;;;0.28;0.20;;;12.70;50.20;;;;;;5006011;28;20423;-72
2020/12/22 09:29:57;;;;;;;2.50;0.68;;;12.60;51.10;;;;;;5006639;28;20842;-72
2020/12/22 09:32:24;;;;;;;1.05;0.40;;;12.60;51.70;;;;;;5010429;28;20563;-72
2020/12/22 09:34:52;;;;;;;0.30;0.30;;;12.60;51.80;;;;;;5009563;28;20057;-72
2020/12/22 09:37:22;;;;;;;1.48;0.30;;;12.60;52.90;;;;;;5007268;28;20137;-71
2020/12/22 09:39:50;;;;;;;0.85;0.30;;;12.60;54.00;;;;;;5007131;28;20506;-73
2020/12/22 09:42:17;;;;;;;1.23;0.50;;;12.50;54.50;;;;;;5009269;28;20041;-72
2020/12/22 09:44:44;;;;;;;1.67;0.40;;;12.50;56.20;;;;;;5006285;28;20053;-72
2020/12/22 09:47:11;;;;;;;1.92;0.50;;;12.50;57.20;;;;;;5009099;28;20153;-73
2020/12/22 09:49:38;;;;;;;1.83;0.57;;;12.50;58.70;;;;;;5007487;28;20056;-72
2020/12/22 09:52:05;;;;;;;1.15;0.60;;;12.40;59.60;;;;;;5007118;28;20068;-70
2020/12/22 09:54:33;;;;;;;0.95;0.50;;;12.40;60.60;;;;;;5010470;28;20053;-70
2020/12/22 09:57:01;;;;;;;2.05;0.60;;;12.40;62.50;;;;;;5019001;28;20671;-72
2020/12/22 09:59:28;;;;;;;1.50;0.35;;;12.40;61.80;;;;;;5016719;28;20121;-71
2020/12/22 10:01:57;;;;;;;0.85;0.50;;;12.40;61.70;;;;;;5009642;28;20152;-71
2020/12/22 10:04:24;;;;;;;1.92;0.68;;;12.50;63.20;;;;;;5013350;28;20061;-76
2020/12/22 10:06:51;;;;;;;2.30;0.60;;;12.50;61.80;;;;;;5013584;28;20133;-70
2020/12/22 10:09:18;;;;;;;2.72;0.60;;;12.60;60.90;;;;;;5013777;28;20042;-77
2020/12/22 10:11:46;;;;;;;2.97;0.90;;;12.60;61.20;;;;;;5012224;28;20088;-71
2020/12/22 10:14:14;;;;;;;1.17;0.60;;;12.70;58.80;;;;;;5018083;28;20395;-74
2020/12/22 10:16:40;;;;;;;1.15;0.70;;;12.70;59.50;;;;;;5013810;28;20064;-73
2020/12/22 10:19:10;;;;;;;2.00;0.68;;;12.80;56.70;;;;;;5009972;28;20516;-70
2020/12/22 10:21:37;;;;;;;0.50;0.25;;;12.80;56.50;;;;;;5014053;28;20053;-72
2020/12/22 10:24:04;;;;;;;1.70;0.40;;;12.80;55.80;;;;;;5016638;28;20054;-78
2020/12/22 10:26:33;;;;;;;1.10;0.43;;;12.90;54.80;;;;;;5010908;28;20143;-74
2020/12/22 10:29:01;;;;;;;1.13;0.60;;;13.00;52.10;;;;;;5016541;28;20054;-70
2020/12/22 10:31:28;;;;;;;0.80;0.20;;;13.00;52.10;;;;;;5014696;28;20128;-71
2020/12/22 10:33:56;;;;;;;2.65;0.40;;;13.10;52.20;;;;;;5015192;28;20488;-72
2020/12/22 10:36:25;;;;;;;2.70;0.70;;;13.10;51.20;;;;;;5015661;28;20072;-71
2020/12/22 10:38:54;;;;;;;2.35;0.50;;;13.20;49.90;;;;;;5015563;28;20077;-70
2020/12/22 10:41:21;;;;;;;2.55;0.75;;;13.20;50.30;;;;;;5012628;28;20053;-71
2020/12/22 10:43:48;;;;;;;0.68;0.60;;;13.20;50.90;;;;;;5017753;28;20587;-76
2020/12/22 10:46:17;;;;;;;0.40;0.38;;;13.20;50.40;;;;;;5015822;28;20072;-77
2020/12/22 10:48:44;;;;;;;0.20;0.20;;;13.20;49.40;;;;;;5018407;28;20054;-77
2020/12/22 10:51:11;;;;;;;1.55;0.40;;;13.30;47.70;;;;;;5014285;28;20093;-71
2020/12/22 10:53:38;;;;;;;1.48;0.60;;;13.30;47.90;;;;;;5019878;28;20054;-70
2020/12/22 10:56:09;;;;;;;1.40;0.30;;;13.30;47.70;;;;;;5016141;28;21108;-71
2020/12/22 10:58:37;;;;;;;1.90;0.55;;;13.30;48.30;;;;;;5017537;28;20054;-74
2020/12/22 11:01:05;;;;;;;1.17;0.47;;;13.20;47.50;;;;;;5012890;28;20050;-70
2020/12/22 11:03:33;;;;;;;1.67;0.50;;;13.30;47.80;;;;;;5016169;28;20053;-73
2020/12/22 11:06:12;;;;;;;5.57;2.25;;;13.20;47.70;;;;;;5014033;28;20049;-73
2020/12/22 11:08:40;;;;;;;1.88;1.35;;;13.20;48.40;;;;;;5021640;28;20092;-70
2020/12/22 11:11:08;;;;;;;1.08;0.60;;;13.20;49.30;;;;;;5011997;28;20214;-70
2020/12/22 11:13:35;;;;;;;1.92;0.60;;;13.20;48.90;;;;;;5018812;28;20050;-76
2020/12/22 11:16:04;;;;;;;3.47;0.50;;;13.20;48.20;;;;;;5015280;28;20129;-72
2020/12/22 11:18:34;;;;;;;3.90;0.55;;;13.20;48.30;;;;;;5020675;28;20075;-71
2020/12/22 11:21:00;;;;;;;0.68;0.40;;;13.30;48.30;;;;;;5016148;28;20050;-71
2020/12/22 11:23:42;;;;;;;1.75;0.50;;;13.30;48.10;;;;;;5016000;28;20072;-71
2020/12/22 11:26:10;;;;;;;0.68;0.38;;;13.30;48.00;;;;;;5018411;28;20061;-75
2020/12/22 11:28:38;;;;;;;1.52;0.40;;;13.30;48.10;;;;;;5019500;28;20874;-72
2020/12/22 11:31:05;;;;;;;1.85;0.60;;;13.30;48.00;;;;;;5017194;28;20136;-71
2020/12/22 11:33:33;;;;;;;0.98;0.40;;;13.40;47.90;;;;;;5013100;28;20072;-73
2020/12/22 11:36:00;;;;;;;4.32;0.57;;;13.30;47.20;;;;;;5011715;28;20046;-71
2020/12/22 11:38:27;;;;;;;0.77;0.40;;;13.30;47.70;;;;;;5015359;28;20053;-74
2020/12/22 11:40:54;;;;;;;1.25;0.70;;;13.40;47.80;;;;;;5006316;28;20054;-73
2020/12/22 11:43:21;;;;;;;0.45;0.40;;;13.30;47.60;;;;;;5016049;28;20058;-69
2020/12/22 11:45:47;;;;;;;0.70;0.38;;;13.30;47.00;;;;;;5015486;28;20413;-73
2020/12/22 11:48:14;;;;;;;0.70;0.40;;;13.40;47.40;;;;;;5016430;28;20049;-76
2020/12/22 11:50:42;;;;;;;0.88;0.35;;;13.40;46.40;;;;;;5011196;28;20057;-75
2020/12/22 11:53:09;;;;;;;1.35;0.30;;;13.40;47.10;;;;;;5018285;28;20676;-70
2020/12/22 11:55:36;;;;;;;1.13;0.73;;;13.40;46.10;;;;;;5017928;28;20049;-72
2020/12/22 11:58:03;;;;;;;1.35;0.52;;;13.40;46.80;;;;;;5019226;28;20487;-72
2020/12/22 12:00:31;;;;;;;1.05;0.45;;;13.50;46.50;;;;;;5015049;28;20072;-71
2020/12/22 12:02:59;;;;;;;0.98;0.70;;;13.40;46.00;;;;;;5019127;28;20068;-72
2020/12/22 12:05:27;;;;;;;0.88;0.40;;;13.40;46.30;;;;;;5016236;28;20053;-72
2020/12/22 12:07:54;;;;;;;1.58;0.40;;;13.50;46.00;;;;;;5018143;28;20053;-73
2020/12/22 12:10:21;;;;;;;0.45;0.20;;;13.50;45.90;;;;;;5010560;28;20042;-74
2020/12/22 12:12:48;;;;;;;0.80;0.50;;;13.50;44.40;;;;;;5011988;28;20055;-72
2020/12/22 12:15:15;;;;;;;3.10;0.43;;;13.50;45.00;;;;;;5009882;28;20045;-73
2020/12/22 12:17:43;;;;;;;1.20;0.40;;;13.70;44.50;;;;;;5013805;28;20468;-70
2020/12/22 12:20:10;;;;;;;1.10;0.47;;;13.60;44.30;;;;;;5011071;28;20064;-71
2020/12/22 12:22:37;;;;;;;0.50;0.40;;;13.60;44.20;;;;;;5009776;28;20586;-70
2020/12/22 12:25:05;;;;;;;1.15;0.43;;;13.60;43.10;;;;;;5012477;28;20061;-72
2020/12/22 12:27:31;;;;;;;0.70;0.63;;;13.60;44.40;;;;;;5011819;28;20050;-70
2020/12/22 12:29:58;;;;;;;2.30;0.40;;;13.80;42.50;;;;;;5018267;28;20697;-71
2020/12/22 12:32:26;;;;;;;1.58;0.30;;;13.70;44.50;;;;;;5014938;28;20410;-69
2020/12/22 12:34:53;;;;;;;1.00;0.40;;;13.60;44.40;;;;;;5009312;28;20062;-70
2020/12/22 12:37:20;;;;;;;0.63;0.45;;;13.70;43.70;;;;;;5006783;28;20057;-68
2020/12/22 12:39:47;;;;;;;0.95;0.43;;;13.60;44.40;;;;;;5008800;28;20057;-70
2020/12/22 12:42:14;;;;;;;0.90;0.40;;;13.60;44.40;;;;;;5011362;28;20440;-71
2020/12/22 12:44:41;;;;;;;1.70;0.40;;;13.60;44.40;;;;;;5008892;28;20184;-75
2020/12/22 12:47:08;;;;;;;0.82;0.38;;;14.00;42.30;;;;;;5011161;28;20137;-70
2020/12/22 12:49:35;;;;;;;1.25;0.50;;;13.90;42.00;;;;;;5008891;28;20200;-76
2020/12/22 12:52:02;;;;;;;0.98;0.60;;;14.00;41.80;;;;;;5007191;28;20046;-70
2020/12/22 12:54:29;;;;;;;5.00;0.88;;;14.00;41.70;;;;;;5001641;28;20092;-76